createdAt,value
2023-05-10T00:00:02.342Z,10
2023-05-10T00:01:02.205Z,10
2023-05-10T00:02:01.358Z,10
2023-05-10T00:03:01.485Z,10.1
2023-05-10T00:04:01.347Z,10
2023-05-10T00:05:02.340Z,10
2023-05-10T00:06:02.300Z,10
2023-05-10T00:07:02.175Z,10
2023-05-10T00:08:02.121Z,9.9
2023-05-10T00:09:02.198Z,10
2023-05-10T00:10:02.032Z,9.9
2023-05-10T00:11:02.071Z,9.9
2023-05-10T00:12:01.953Z,10
2023-05-10T00:13:01.962Z,10
2023-05-10T00:14:01.902Z,9.9
2023-05-10T00:15:01.801Z,9.9
2023-05-10T00:16:01.794Z,9.9
2023-05-10T00:17:01.618Z,10
2023-05-10T00:18:01.656Z,9.9
2023-05-10T00:19:01.474Z,9.9
2023-05-10T00:20:01.429Z,10
2023-05-10T00:21:01.299Z,9.9
2023-05-10T00:22:01.342Z,9.8
2023-05-10T00:23:01.307Z,9.8
2023-05-10T00:24:02.361Z,9.9
2023-05-10T00:25:02.231Z,9.8
2023-05-10T00:26:02.225Z,9.7
2023-05-10T00:27:02.147Z,9.8
2023-05-10T00:28:02.196Z,9.8
2023-05-10T00:29:02.040Z,9.7
2023-05-10T00:30:02.059Z,9.8
2023-05-10T00:31:01.910Z,9.8
2023-05-10T00:32:01.879Z,9.8
2023-05-10T00:33:01.892Z,9.7
2023-05-10T00:34:01.856Z,9.7
2023-05-10T00:35:01.828Z,9.8
2023-05-10T00:36:01.772Z,9.8
2023-05-10T00:37:01.702Z,9.7
2023-05-10T00:38:01.764Z,9.7
2023-05-10T00:39:01.554Z,9.6
2023-05-10T00:40:01.537Z,9.7
2023-05-10T00:41:01.443Z,9.7
2023-05-10T00:42:01.410Z,9.7
2023-05-10T00:43:01.288Z,9.7
2023-05-10T00:44:02.333Z,9.6
2023-05-10T00:45:02.188Z,9.6
2023-05-10T00:46:02.271Z,9.6
2023-05-10T00:47:02.090Z,9.5
2023-05-10T00:48:02.188Z,9.6
2023-05-10T00:49:01.996Z,9.6
2023-05-10T00:50:01.994Z,9.6
2023-05-10T00:51:01.840Z,9.6
2023-05-10T00:52:01.875Z,9.6
2023-05-10T00:53:01.880Z,9.6
2023-05-10T00:54:01.826Z,9.6
2023-05-10T00:55:01.795Z,9.6
2023-05-10T00:56:01.889Z,9.6
2023-05-10T00:57:01.752Z,9.5
2023-05-10T00:58:01.803Z,9.3
2023-05-10T00:59:01.705Z,9.4
2023-05-10T01:00:02.397Z,9.4
2023-05-10T01:01:02.253Z,9.4
2023-05-10T01:02:01.592Z,9.4
2023-05-10T01:03:01.691Z,9.4
2023-05-10T01:04:01.664Z,9.4
2023-05-10T01:05:01.785Z,9.4
2023-05-10T01:06:01.567Z,9.4
2023-05-10T01:07:01.667Z,9.5
2023-05-10T01:08:01.580Z,9.3
2023-05-10T01:09:01.635Z,9.4
2023-05-10T01:10:01.487Z,9.3
2023-05-10T01:11:01.883Z,9.3
2023-05-10T01:12:01.498Z,9.3
2023-05-10T01:13:01.472Z,9.3
2023-05-10T01:14:01.335Z,9.4
2023-05-10T01:15:01.414Z,9.3
2023-05-10T01:16:01.358Z,9.3
2023-05-10T01:17:02.223Z,9.3
2023-05-10T01:18:02.220Z,9.3
2023-05-10T01:19:02.076Z,9.4
2023-05-10T01:20:02.153Z,9.3
2023-05-10T01:21:02.016Z,9.3
2023-05-10T01:22:02.016Z,9.2
2023-05-10T01:23:01.898Z,9.2
2023-05-10T01:24:01.817Z,9.4
2023-05-10T01:25:01.828Z,9.3
2023-05-10T01:26:01.704Z,9.3
2023-05-10T01:27:01.756Z,9.3
2023-05-10T01:28:01.563Z,9.3
2023-05-10T01:29:01.537Z,9.2
2023-05-10T01:30:14.560Z,9.2
2023-05-10T01:31:01.803Z,9.2
2023-05-10T01:32:02.292Z,9.2
2023-05-10T01:33:02.219Z,9.1
2023-05-10T01:34:02.281Z,9.1
2023-05-10T01:35:02.159Z,8.8
2023-05-10T01:36:02.159Z,8.9
2023-05-10T01:37:02.058Z,8.8
2023-05-10T01:38:02.078Z,9
2023-05-10T01:39:01.870Z,9
2023-05-10T01:40:01.861Z,8.9
2023-05-10T01:41:01.920Z,8.8
2023-05-10T01:42:01.788Z,8.8
2023-05-10T01:43:01.797Z,8.7
2023-05-10T01:44:01.694Z,8.9
2023-05-10T01:45:01.727Z,8.7
2023-05-10T01:46:01.532Z,9
2023-05-10T01:47:01.444Z,8.9
2023-05-10T01:48:01.399Z,8.7
2023-05-10T01:49:01.315Z,8.8
2023-05-10T01:50:02.314Z,8.6
2023-05-10T01:51:02.220Z,8.6
2023-05-10T01:52:02.280Z,8.5
2023-05-10T01:53:02.139Z,8.3
2023-05-10T01:54:02.234Z,8.5
2023-05-10T01:55:02.059Z,8.4
2023-05-10T01:56:02.107Z,8.6
2023-05-10T01:57:01.939Z,8.5
2023-05-10T01:58:01.923Z,8.5
2023-05-10T01:59:01.998Z,8.4
2023-05-10T02:00:03.282Z,8.5
2023-05-10T02:01:02.179Z,8.5
2023-05-10T02:02:01.645Z,8.5
2023-05-10T02:03:01.723Z,8.6
2023-05-10T02:04:01.584Z,8.5
2023-05-10T02:05:01.555Z,8.5
2023-05-10T02:06:01.393Z,8.7
2023-05-10T02:07:01.401Z,8.7
2023-05-10T02:08:02.337Z,8.8
2023-05-10T02:09:02.202Z,8.8
2023-05-10T02:10:02.249Z,8.8
2023-05-10T02:11:02.139Z,8.6
2023-05-10T02:12:02.166Z,8.7
2023-05-10T02:13:02.028Z,8.5
2023-05-10T02:14:02.042Z,8.5
2023-05-10T02:15:01.921Z,8.6
2023-05-10T02:16:01.883Z,8.7
2023-05-10T02:17:02.079Z,8.7
2023-05-10T02:18:02.060Z,8.8
2023-05-10T02:19:01.915Z,8.7
2023-05-10T02:20:01.883Z,8.8
2023-05-10T02:21:01.908Z,8.7
2023-05-10T02:22:01.817Z,8.6
2023-05-10T02:23:01.774Z,8.6
2023-05-10T02:24:01.860Z,8.6
2023-05-10T02:25:01.666Z,8.6
2023-05-10T02:26:01.734Z,8.6
2023-05-10T02:27:01.666Z,8.6
2023-05-10T02:28:01.683Z,8.7
2023-05-10T02:29:01.581Z,8.6
2023-05-10T02:30:01.574Z,8.6
2023-05-10T02:31:01.418Z,8.6
2023-05-10T02:32:01.406Z,8.5
2023-05-10T02:33:02.419Z,8.5
2023-05-10T02:34:02.241Z,8.5
2023-05-10T02:35:02.295Z,8.6
2023-05-10T02:36:02.136Z,8.5
2023-05-10T02:37:02.192Z,8.5
2023-05-10T02:38:02.016Z,8.5
2023-05-10T02:39:02.080Z,8.4
2023-05-10T02:40:01.962Z,8.5
2023-05-10T02:41:01.950Z,8.5
2023-05-10T02:42:01.970Z,8.5
2023-05-10T02:43:01.904Z,8.5
2023-05-10T02:44:01.803Z,8.5
2023-05-10T02:45:01.829Z,8.4
2023-05-10T02:46:01.785Z,8.4
2023-05-10T02:47:01.423Z,8.2
2023-05-10T02:48:01.469Z,8.4
2023-05-10T02:49:01.320Z,8.3
2023-05-10T02:50:02.375Z,8.2
2023-05-10T02:51:02.202Z,8.4
2023-05-10T02:52:02.222Z,8.3
2023-05-10T02:53:02.103Z,8.4
2023-05-10T02:54:02.144Z,8.3
2023-05-10T02:55:02.013Z,8
2023-05-10T02:56:02.006Z,8
2023-05-10T02:57:01.896Z,8.2
2023-05-10T02:58:01.874Z,8.3
2023-05-10T02:59:01.976Z,8.3
2023-05-10T03:00:02.953Z,8.2
2023-05-10T03:01:01.845Z,8.3
2023-05-10T03:02:01.869Z,8.3
2023-05-10T03:03:01.895Z,8.3
2023-05-10T03:04:01.679Z,8.3
2023-05-10T03:05:01.712Z,8.3
2023-05-10T03:06:01.561Z,8.3
2023-05-10T03:07:01.596Z,8.1
2023-05-10T03:08:01.400Z,8.3
2023-05-10T03:09:01.438Z,8.3
2023-05-10T03:10:01.251Z,8.4
2023-05-10T03:11:02.270Z,8.3
2023-05-10T03:12:02.194Z,8.4
2023-05-10T03:13:02.237Z,8.2
2023-05-10T03:14:02.081Z,8.3
2023-05-10T03:15:02.121Z,8.3
2023-05-10T03:16:01.989Z,8.2
2023-05-10T03:17:01.833Z,8.2
2023-05-10T03:18:01.796Z,8.3
2023-05-10T03:19:01.710Z,8.3
2023-05-10T03:20:01.773Z,8.3
2023-05-10T03:21:01.659Z,8.3
2023-05-10T03:22:01.761Z,8.3
2023-05-10T03:23:01.629Z,8.2
2023-05-10T03:24:01.667Z,8.2
2023-05-10T03:25:01.467Z,8.2
2023-05-10T03:26:01.570Z,8.1
2023-05-10T03:27:01.391Z,8.1
2023-05-10T03:28:01.436Z,8.1
2023-05-10T03:29:01.301Z,8.2
2023-05-10T03:30:02.344Z,8.1
2023-05-10T03:31:02.195Z,8.1
2023-05-10T03:32:02.090Z,8.2
2023-05-10T03:33:02.193Z,8.2
2023-05-10T03:34:02.018Z,8.2
2023-05-10T03:35:02.016Z,8.2
2023-05-10T03:36:01.912Z,8.2
2023-05-10T03:37:01.851Z,8.2
2023-05-10T03:38:01.856Z,8.1
2023-05-10T03:39:01.692Z,8.2
2023-05-10T03:40:01.839Z,8.1
2023-05-10T03:41:01.750Z,8.1
2023-05-10T03:42:01.667Z,8.1
2023-05-10T03:43:01.602Z,8.1
2023-05-10T03:44:01.699Z,8
2023-05-10T03:45:01.573Z,8.1
2023-05-10T03:46:01.584Z,8.1
2023-05-10T03:47:02.370Z,8.1
2023-05-10T03:48:02.312Z,8.2
2023-05-10T03:49:01.456Z,8.2
2023-05-10T03:50:01.252Z,8.2
2023-05-10T03:51:02.316Z,8.2
2023-05-10T03:52:02.164Z,8.2
2023-05-10T03:53:02.238Z,8.2
2023-05-10T03:54:02.095Z,8.2
2023-05-10T03:55:02.149Z,8.2
2023-05-10T03:56:02.003Z,8.2
2023-05-10T03:57:02.069Z,8.2
2023-05-10T03:58:01.971Z,8.2
2023-05-10T03:59:01.973Z,8.2
2023-05-10T04:00:01.979Z,8.2
2023-05-10T04:01:01.883Z,8.2
2023-05-10T04:02:01.359Z,8.2
2023-05-10T04:03:02.458Z,8.3
2023-05-10T04:04:01.353Z,8.2
2023-05-10T04:05:01.327Z,8.2
2023-05-10T04:06:02.393Z,8.3
2023-05-10T04:07:01.370Z,8.3
2023-05-10T04:08:01.398Z,8.3
2023-05-10T04:09:02.346Z,8.4
2023-05-10T04:10:02.270Z,8.4
2023-05-10T04:11:02.301Z,8.3
2023-05-10T04:12:02.156Z,8.4
2023-05-10T04:13:02.290Z,8.4
2023-05-10T04:14:02.152Z,8.4
2023-05-10T04:15:02.244Z,8.5
2023-05-10T04:16:02.108Z,8.4
2023-05-10T04:17:02.253Z,8.4
2023-05-10T04:18:01.454Z,8.4
2023-05-10T04:19:01.334Z,8.4
2023-05-10T04:20:01.408Z,8.5
2023-05-10T04:21:02.382Z,8.5
2023-05-10T04:22:02.234Z,8.5
2023-05-10T04:23:02.338Z,8.6
2023-05-10T04:24:02.170Z,8.5
2023-05-10T04:25:02.277Z,8.5
2023-05-10T04:26:02.223Z,8.6
2023-05-10T04:27:02.293Z,8.6
2023-05-10T04:28:02.190Z,8.5
2023-05-10T04:29:02.238Z,8.6
2023-05-10T04:30:02.181Z,8.7
2023-05-10T04:31:02.296Z,8.7
2023-05-10T04:32:01.981Z,8.7
2023-05-10T04:33:01.984Z,8.7
2023-05-10T04:34:01.856Z,8.8
2023-05-10T04:35:01.817Z,8.8
2023-05-10T04:36:01.901Z,8.9
2023-05-10T04:37:01.737Z,8.9
2023-05-10T04:38:01.835Z,9
2023-05-10T04:39:01.763Z,8.9
2023-05-10T04:40:01.827Z,9
2023-05-10T04:41:01.623Z,9.1
2023-05-10T04:42:01.732Z,9.2
2023-05-10T04:43:01.617Z,9.1
2023-05-10T04:44:01.621Z,9.2
2023-05-10T04:45:01.466Z,9.3
2023-05-10T04:46:01.472Z,9.3
2023-05-10T04:47:02.301Z,9.3
2023-05-10T04:48:02.188Z,9.3
2023-05-10T04:49:02.271Z,9.4
2023-05-10T04:50:02.210Z,9.4
2023-05-10T04:51:02.173Z,9.6
2023-05-10T04:52:02.105Z,9.5
2023-05-10T04:53:02.109Z,9.6
2023-05-10T04:54:06.363Z,9.6
2023-05-10T04:55:01.677Z,9.6
2023-05-10T04:56:01.665Z,9.6
2023-05-10T04:57:01.523Z,9.7
2023-05-10T04:58:01.539Z,9.6
2023-05-10T04:59:01.336Z,9.7
2023-05-10T05:00:02.448Z,9.8
2023-05-10T05:01:01.344Z,9.9
2023-05-10T05:02:02.067Z,10
2023-05-10T05:03:02.204Z,9.9
2023-05-10T05:04:02.388Z,10
2023-05-10T05:05:02.151Z,9.9
2023-05-10T05:06:02.168Z,10.1
2023-05-10T05:07:02.111Z,10.3
2023-05-10T05:08:02.079Z,10.2
2023-05-10T05:09:01.958Z,10.2
2023-05-10T05:10:01.899Z,10.2
2023-05-10T05:11:01.987Z,10.3
2023-05-10T05:12:01.762Z,10.4
2023-05-10T05:13:01.798Z,10.4
2023-05-10T05:14:01.800Z,10.5
2023-05-10T05:15:01.689Z,10.6
2023-05-10T05:16:01.695Z,10.6
2023-05-10T05:17:01.548Z,10.5
2023-05-10T05:18:01.612Z,10.5
2023-05-10T05:19:01.440Z,10.4
2023-05-10T05:20:01.414Z,10.5
2023-05-10T05:21:01.314Z,10.5
2023-05-10T05:22:02.339Z,10.5
2023-05-10T05:23:02.254Z,10.6
2023-05-10T05:24:02.255Z,10.7
2023-05-10T05:25:02.099Z,10.9
2023-05-10T05:26:02.113Z,10.9
2023-05-10T05:27:02.027Z,10.8
2023-05-10T05:28:02.089Z,10.9
2023-05-10T05:29:01.884Z,10.9
2023-05-10T05:30:01.899Z,10.9
2023-05-10T05:31:01.871Z,11.1
2023-05-10T05:32:01.634Z,11
2023-05-10T05:33:01.642Z,11
2023-05-10T05:34:01.409Z,11
2023-05-10T05:35:01.405Z,10.9
2023-05-10T05:36:02.296Z,11
2023-05-10T05:37:02.201Z,11.1
2023-05-10T05:38:02.283Z,11
2023-05-10T05:39:02.111Z,10.9
2023-05-10T05:40:02.172Z,11.1
2023-05-10T05:41:01.993Z,11.1
2023-05-10T05:42:02.055Z,11.1
2023-05-10T05:43:01.893Z,11.2
2023-05-10T05:44:01.804Z,11.2
2023-05-10T05:45:01.844Z,11.3
2023-05-10T05:46:01.730Z,11.4
2023-05-10T05:47:01.803Z,11.5
2023-05-10T05:48:02.891Z,11.5
2023-05-10T05:49:01.697Z,11.6
2023-05-10T05:50:01.755Z,11.7
2023-05-10T05:51:01.624Z,11.6
2023-05-10T05:52:01.591Z,11.7
2023-05-10T05:53:01.524Z,11.8
2023-05-10T05:54:01.387Z,11.7
2023-05-10T05:55:01.278Z,11.8
2023-05-10T05:56:01.355Z,11.9
2023-05-10T05:57:02.370Z,11.9
2023-05-10T05:58:02.269Z,12
2023-05-10T05:59:02.199Z,12.2
2023-05-10T06:00:02.134Z,12.1
2023-05-10T06:01:02.196Z,12
2023-05-10T06:02:01.347Z,12
2023-05-10T06:03:01.473Z,12
2023-05-10T06:04:01.650Z,12
2023-05-10T06:05:01.682Z,12.2
2023-05-10T06:06:01.465Z,12.3
2023-05-10T06:07:01.469Z,12.3
2023-05-10T06:08:01.347Z,12.2
2023-05-10T06:09:01.382Z,12.3
2023-05-10T06:10:02.328Z,12.2
2023-05-10T06:11:02.237Z,12.2
2023-05-10T06:12:02.290Z,12.3
2023-05-10T06:13:02.164Z,12.3
2023-05-10T06:14:02.280Z,12.3
2023-05-10T06:15:02.172Z,12.5
2023-05-10T06:16:02.221Z,12.7
2023-05-10T06:17:02.078Z,12.7
2023-05-10T06:18:02.198Z,12.6
2023-05-10T06:19:02.106Z,12.7
2023-05-10T06:20:02.175Z,12.9
2023-05-10T06:21:02.081Z,12.6
2023-05-10T06:22:02.104Z,12.8
2023-05-10T06:23:01.950Z,12.7
2023-05-10T06:24:01.942Z,12.8
2023-05-10T06:25:01.999Z,12.9
2023-05-10T06:26:01.860Z,12.9
2023-05-10T06:27:01.788Z,12.9
2023-05-10T06:28:01.860Z,13.1
2023-05-10T06:29:01.747Z,13.1
2023-05-10T06:30:12.174Z,13.2
2023-05-10T06:31:01.321Z,13.3
2023-05-10T06:32:01.767Z,13.4
2023-05-10T06:33:01.764Z,13.5
2023-05-10T06:34:01.698Z,13.5
2023-05-10T06:35:01.685Z,13.6
2023-05-10T06:36:01.565Z,13.6
2023-05-10T06:37:01.644Z,13.7
2023-05-10T06:38:01.480Z,13.8
2023-05-10T06:39:01.467Z,13.9
2023-05-10T06:40:01.376Z,13.9
2023-05-10T06:41:01.365Z,13.9
2023-05-10T06:42:02.340Z,13.9
2023-05-10T06:43:02.218Z,13.9
2023-05-10T06:44:02.258Z,14
2023-05-10T06:45:02.222Z,14.1
2023-05-10T06:46:02.317Z,14.1
2023-05-10T06:47:02.186Z,14.1
2023-05-10T06:48:02.300Z,14.2
2023-05-10T06:49:02.151Z,14.2
2023-05-10T06:50:02.157Z,14.2
2023-05-10T06:51:02.193Z,14.4
2023-05-10T06:52:02.071Z,14.4
2023-05-10T06:53:02.007Z,14.2
2023-05-10T06:54:01.973Z,14.5
2023-05-10T06:55:02.056Z,14.5
2023-05-10T06:56:01.906Z,14.6
2023-05-10T06:57:03.631Z,14.6
2023-05-10T06:58:01.550Z,14.7
2023-05-10T06:59:01.589Z,14.5
2023-05-10T07:00:02.396Z,14.4
2023-05-10T07:01:01.312Z,14.5
2023-05-10T07:02:01.924Z,14.4
2023-05-10T07:03:01.934Z,14.5
2023-05-10T07:04:01.739Z,14.5
2023-05-10T07:05:03.379Z,14.6
2023-05-10T07:06:01.314Z,14.8
2023-05-10T07:07:01.349Z,14.9
2023-05-10T07:08:02.340Z,14.9
2023-05-10T07:09:02.208Z,14.9
2023-05-10T07:10:02.230Z,15
2023-05-10T07:11:02.131Z,15.1
2023-05-10T07:12:02.224Z,15.1
2023-05-10T07:13:02.059Z,15.1
2023-05-10T07:14:02.253Z,15
2023-05-10T07:15:02.105Z,15.1
2023-05-10T07:16:02.167Z,15.2
2023-05-10T07:17:01.983Z,15.2
2023-05-10T07:18:01.986Z,15.2
2023-05-10T07:19:01.963Z,15
2023-05-10T07:20:01.904Z,15.4
2023-05-10T07:21:01.981Z,15.4
2023-05-10T07:22:01.783Z,15.4
2023-05-10T07:23:01.748Z,15.6
2023-05-10T07:24:01.820Z,15.7
2023-05-10T07:25:01.611Z,15.7
2023-05-10T07:26:01.669Z,15.7
2023-05-10T07:27:01.510Z,15.8
2023-05-10T07:28:01.557Z,15.7
2023-05-10T07:29:01.359Z,15.8
2023-05-10T07:30:01.398Z,15.8
2023-05-10T07:31:01.302Z,16
2023-05-10T07:32:01.680Z,15.9
2023-05-10T07:33:01.744Z,16
2023-05-10T07:34:01.584Z,15.9
2023-05-10T07:35:01.594Z,16.1
2023-05-10T07:36:01.448Z,16.2
2023-05-10T07:37:01.498Z,16.2
2023-05-10T07:38:01.311Z,16.2
2023-05-10T07:39:01.416Z,16.1
2023-05-10T07:40:02.316Z,15.8
2023-05-10T07:41:02.216Z,16.1
2023-05-10T07:42:02.258Z,16.2
2023-05-10T07:43:02.129Z,16.3
2023-05-10T07:44:02.209Z,16.3
2023-05-10T07:45:02.024Z,16.5
2023-05-10T07:46:02.085Z,16.3
2023-05-10T07:47:01.881Z,16.4
2023-05-10T07:48:01.919Z,16.7
2023-05-10T07:49:01.831Z,16.6
2023-05-10T07:50:01.755Z,16.8
2023-05-10T07:51:01.840Z,16.8
2023-05-10T07:52:01.668Z,16.8
2023-05-10T07:53:01.614Z,16.6
2023-05-10T07:54:01.619Z,16.5
2023-05-10T07:55:01.493Z,16.5
2023-05-10T07:56:01.401Z,16.6
2023-05-10T07:57:01.428Z,16.7
2023-05-10T07:58:01.328Z,16.5
2023-05-10T07:59:01.480Z,16.8
2023-05-10T08:00:01.747Z,16.7
2023-05-10T08:01:01.829Z,16.6
2023-05-10T08:02:01.502Z,16.7
2023-05-10T08:03:01.664Z,16.9
2023-05-10T08:04:01.887Z,16.5
2023-05-10T08:05:02.262Z,16.7
2023-05-10T08:06:02.231Z,16.7
2023-05-10T08:07:02.145Z,16.9
2023-05-10T08:08:02.152Z,16.9
2023-05-10T08:09:02.067Z,16.8
2023-05-10T08:10:02.063Z,17
2023-05-10T08:11:01.921Z,17
2023-05-10T08:12:01.781Z,16.9
2023-05-10T08:13:01.793Z,17
2023-05-10T08:14:01.666Z,17.1
2023-05-10T08:15:01.633Z,16.9
2023-05-10T08:16:01.559Z,17.3
2023-05-10T08:17:01.716Z,17.4
2023-05-10T08:18:01.800Z,17.3
2023-05-10T08:19:01.714Z,17.1
2023-05-10T08:20:01.718Z,17.1
2023-05-10T08:21:01.745Z,17.5
2023-05-10T08:22:01.637Z,17.4
2023-05-10T08:23:01.559Z,17.2
2023-05-10T08:24:01.433Z,17.1
2023-05-10T08:25:01.458Z,17.5
2023-05-10T08:26:01.324Z,17.8
2023-05-10T08:27:01.338Z,17.8
2023-05-10T08:28:02.322Z,17.6
2023-05-10T08:29:02.239Z,17.7
2023-05-10T08:30:02.244Z,17.6
2023-05-10T08:31:02.152Z,17.9
2023-05-10T08:32:01.343Z,18
2023-05-10T08:33:01.411Z,17.6
2023-05-10T08:34:02.327Z,17.3
2023-05-10T08:35:02.196Z,17.6
2023-05-10T08:36:02.175Z,18
2023-05-10T08:37:02.092Z,18
2023-05-10T08:38:02.068Z,17.9
2023-05-10T08:39:01.973Z,17.5
2023-05-10T08:40:01.937Z,17.4
2023-05-10T08:41:01.926Z,17.4
2023-05-10T08:42:01.751Z,17.5
2023-05-10T08:43:01.745Z,17.4
2023-05-10T08:44:01.618Z,17.7
2023-05-10T08:45:01.573Z,17.6
2023-05-10T08:46:01.485Z,17.6
2023-05-10T08:47:01.706Z,17.5
2023-05-10T08:48:01.704Z,17.8
2023-05-10T08:49:01.537Z,18.2
2023-05-10T08:50:01.529Z,18.1
2023-05-10T08:51:01.360Z,18.2
2023-05-10T08:52:01.392Z,18
2023-05-10T08:53:02.289Z,18
2023-05-10T08:54:02.194Z,18.3
2023-05-10T08:55:02.253Z,18.2
2023-05-10T08:56:02.117Z,18.2
2023-05-10T08:57:02.178Z,18.4
2023-05-10T08:58:02.028Z,18.5
2023-05-10T08:59:02.096Z,18.4
2023-05-10T09:00:01.940Z,18.5
2023-05-10T09:01:02.028Z,18.7
2023-05-10T09:02:02.074Z,18.7
2023-05-10T09:03:02.177Z,18.8
2023-05-10T09:04:02.340Z,18.9
2023-05-10T09:05:02.305Z,18.9
2023-05-10T09:06:02.270Z,19.2
2023-05-10T09:07:02.166Z,19.4
2023-05-10T09:08:02.229Z,19.6
2023-05-10T09:09:02.083Z,19.6
2023-05-10T09:10:02.150Z,19.5
2023-05-10T09:11:02.026Z,19.4
2023-05-10T09:12:02.076Z,19.3
2023-05-10T09:13:01.933Z,19.6
2023-05-10T09:14:01.941Z,19.5
2023-05-10T09:15:01.932Z,19.2
2023-05-10T09:16:07.058Z,19.1
2023-05-10T09:17:01.940Z,19.3
2023-05-10T09:18:01.917Z,18.6
2023-05-10T09:19:01.812Z,18.9
2023-05-10T09:20:01.696Z,19.5
2023-05-10T09:21:01.756Z,19.5
2023-05-10T09:22:01.607Z,19.4
2023-05-10T09:23:01.669Z,19.4
2023-05-10T09:24:01.463Z,19.4
2023-05-10T09:25:01.483Z,19.6
2023-05-10T09:26:01.330Z,19.6
2023-05-10T09:27:01.380Z,19.8
2023-05-10T09:28:01.304Z,20
2023-05-10T09:29:02.362Z,19.4
2023-05-10T09:30:02.228Z,19.6
2023-05-10T09:31:02.231Z,19.8
2023-05-10T09:32:02.106Z,20.1
2023-05-10T09:33:02.168Z,20.1
2023-05-10T09:34:01.970Z,20.3
2023-05-10T09:35:02.044Z,20.4
2023-05-10T09:36:01.959Z,20.5
2023-05-10T09:37:01.933Z,20.7
2023-05-10T09:38:01.903Z,20.6
2023-05-10T09:39:01.735Z,20.8
2023-05-10T09:40:01.751Z,20.7
2023-05-10T09:41:01.650Z,20.2
2023-05-10T09:42:01.725Z,20.1
2023-05-10T09:43:01.588Z,20
2023-05-10T09:44:01.647Z,19.9
2023-05-10T09:45:01.449Z,20.2
2023-05-10T09:46:01.484Z,20.6
2023-05-10T09:47:01.471Z,20.6
2023-05-10T09:48:01.536Z,20.6
2023-05-10T09:49:01.405Z,20.8
2023-05-10T09:50:01.384Z,21
2023-05-10T09:51:02.340Z,20.9
2023-05-10T09:52:02.176Z,20.7
2023-05-10T09:53:02.226Z,21.1
2023-05-10T09:54:02.098Z,20.8
2023-05-10T09:55:02.142Z,20.8
2023-05-10T09:56:01.991Z,20.5
2023-05-10T09:57:01.950Z,20.8
2023-05-10T09:58:01.988Z,20.8
2023-05-10T09:59:01.861Z,20.9
2023-05-10T10:00:03.638Z,20.7
2023-05-10T10:01:01.523Z,20.3
2023-05-10T10:02:02.002Z,20.5
2023-05-10T10:03:02.097Z,20.6
2023-05-10T10:04:02.071Z,20.8
2023-05-10T10:05:02.039Z,21
2023-05-10T10:06:02.078Z,21.4
2023-05-10T10:07:02.086Z,21.7
2023-05-10T10:08:01.987Z,21.6
2023-05-10T10:09:01.958Z,21.8
2023-05-10T10:10:01.955Z,21.3
2023-05-10T10:11:01.853Z,21.7
2023-05-10T10:12:01.803Z,21.7
2023-05-10T10:13:01.864Z,22.1
2023-05-10T10:14:01.730Z,21.8
2023-05-10T10:15:01.719Z,22
2023-05-10T10:16:01.589Z,21.3
2023-05-10T10:18:01.695Z,22
2023-05-10T10:19:01.812Z,22.3
2023-05-10T10:20:01.681Z,22.5
2023-05-10T10:21:01.740Z,21.4
2023-05-10T10:22:01.707Z,22.1
2023-05-10T10:23:01.554Z,22.3
2023-05-10T10:24:01.486Z,21.4
2023-05-10T10:25:01.578Z,21.6
2023-05-10T10:26:01.446Z,22.3
2023-05-10T10:27:01.480Z,22.5
2023-05-10T10:28:01.432Z,22.6
2023-05-10T10:29:01.318Z,22.8
2023-05-10T10:30:01.271Z,22.6
2023-05-10T10:31:02.353Z,21.9
2023-05-10T10:32:02.088Z,21.8
2023-05-10T10:33:05.559Z,22.5
2023-05-10T10:34:02.121Z,22.1
2023-05-10T10:35:02.165Z,22.8
2023-05-10T10:36:02.036Z,22.2
2023-05-10T10:37:02.094Z,22.5
2023-05-10T10:38:01.956Z,22.7
2023-05-10T10:39:02.026Z,22.9
2023-05-10T10:40:01.900Z,23.5
2023-05-10T10:41:01.828Z,23.8
2023-05-10T10:42:01.862Z,22.9
2023-05-10T10:43:01.767Z,23.2
2023-05-10T10:44:01.642Z,22.7
2023-05-10T10:45:01.591Z,22.6
2023-05-10T10:46:01.446Z,21.6
2023-05-10T10:47:02.410Z,22.7
2023-05-10T10:48:01.731Z,22.4
2023-05-10T10:49:01.557Z,23
2023-05-10T10:50:01.668Z,22.5
2023-05-10T10:51:01.430Z,23.3
2023-05-10T10:52:01.361Z,23.8
2023-05-10T10:53:01.336Z,24
2023-05-10T10:54:02.352Z,23.9
2023-05-10T10:55:02.199Z,24
2023-05-10T10:56:02.293Z,24.3
2023-05-10T10:57:02.127Z,24.5
2023-05-10T10:58:02.216Z,24
2023-05-10T10:59:02.067Z,23.8
2023-05-10T11:00:02.501Z,23.3
2023-05-10T11:01:01.371Z,23.3
2023-05-10T11:02:01.962Z,24.1
2023-05-10T11:03:02.038Z,24.3
2023-05-10T11:04:01.945Z,24.3
2023-05-10T11:05:01.854Z,24.4
2023-05-10T11:06:01.886Z,23.9
2023-05-10T11:07:01.679Z,23.6
2023-05-10T11:08:01.669Z,23.4
2023-05-10T11:09:01.529Z,24
2023-05-10T11:10:01.473Z,23.8
2023-05-10T11:11:01.391Z,23.6
2023-05-10T11:12:01.370Z,23.5
2023-05-10T11:13:01.285Z,24.2
2023-05-10T11:14:02.350Z,23.7
2023-05-10T11:15:02.191Z,23.6
2023-05-10T11:16:02.248Z,23.1
2023-05-10T11:17:01.948Z,23.8
2023-05-10T11:18:01.947Z,24
2023-05-10T11:19:01.764Z,22.9
2023-05-10T11:20:01.746Z,22.6
2023-05-10T11:21:01.836Z,22.2
2023-05-10T11:22:01.664Z,22.3
2023-05-10T11:23:01.675Z,21.9
2023-05-10T11:24:01.588Z,21.9
2023-05-10T11:25:01.578Z,22.1
2023-05-10T11:26:01.424Z,21.9
2023-05-10T11:27:01.475Z,21.6
2023-05-10T11:28:01.319Z,21.7
2023-05-10T11:29:01.391Z,22.3
2023-05-10T11:30:04.358Z,22.7
2023-05-10T11:31:01.643Z,22.8
2023-05-10T11:32:01.583Z,22.9
2023-05-10T11:33:01.587Z,23
2023-05-10T11:34:01.375Z,23.1
2023-05-10T11:35:01.551Z,22.6
2023-05-10T11:36:01.378Z,22.9
2023-05-10T11:37:01.357Z,23
2023-05-10T11:38:02.322Z,22.9
2023-05-10T11:39:02.266Z,22.7
2023-05-10T11:40:02.341Z,22.2
2023-05-10T11:41:02.220Z,21.3
2023-05-10T11:42:02.250Z,21.8
2023-05-10T11:43:02.103Z,21.8
2023-05-10T11:44:02.172Z,21.8
2023-05-10T11:45:02.057Z,21.9
2023-05-10T11:46:02.088Z,22.1
2023-05-10T11:47:02.060Z,21.8
2023-05-10T11:48:02.000Z,21.9
2023-05-10T11:49:01.942Z,21.9
2023-05-10T11:50:01.829Z,21.9
2023-05-10T11:51:01.726Z,21.5
2023-05-10T11:52:01.798Z,21.8
2023-05-10T11:53:01.589Z,21.4
2023-05-10T11:54:01.661Z,21.6
2023-05-10T11:55:01.476Z,21.7
2023-05-10T11:56:01.549Z,21.5
2023-05-10T11:57:01.375Z,21.4
2023-05-10T11:58:01.473Z,21.7
2023-05-10T11:59:01.285Z,21.9
2023-05-10T12:00:02.563Z,22.8
2023-05-10T12:01:01.417Z,22.4
2023-05-10T12:02:01.281Z,22.6
2023-05-10T12:03:02.440Z,22.7
2023-05-10T12:04:01.678Z,22.7
2023-05-10T12:05:02.068Z,22.9
2023-05-10T12:06:01.897Z,22.2
2023-05-10T12:07:01.898Z,22.3
2023-05-10T12:08:01.949Z,22.7
2023-05-10T12:09:01.832Z,23.1
2023-05-10T12:10:01.737Z,22.9
2023-05-10T12:11:01.807Z,22.6
2023-05-10T12:12:01.691Z,22.5
2023-05-10T12:13:01.728Z,22.4
2023-05-10T12:14:01.635Z,22.1
2023-05-10T12:15:01.655Z,21.3
2023-05-10T12:16:01.503Z,21.4
2023-05-10T12:17:01.760Z,21.2
2023-05-10T12:18:01.785Z,21.6
2023-05-10T12:19:01.775Z,21.4
2023-05-10T12:20:01.861Z,21.6
2023-05-10T12:21:01.843Z,21.7
2023-05-10T12:22:01.761Z,21.5
2023-05-10T12:23:01.838Z,21.3
2023-05-10T12:24:01.726Z,21.4
2023-05-10T12:25:01.777Z,21.6
2023-05-10T12:26:01.640Z,21.5
2023-05-10T12:27:01.556Z,21.5
2023-05-10T12:28:01.456Z,21.3
2023-05-10T12:29:01.461Z,21.4
2023-05-10T12:30:01.366Z,21.4
2023-05-10T12:31:01.418Z,21.5
2023-05-10T12:32:01.443Z,21.4
2023-05-10T12:33:01.467Z,21.5
2023-05-10T12:34:01.338Z,21.2
2023-05-10T12:35:01.380Z,20.8
2023-05-10T12:36:02.377Z,21
2023-05-10T12:37:01.899Z,21.1
2023-05-10T12:38:01.891Z,21.5
2023-05-10T12:39:01.697Z,21.3
2023-05-10T12:40:01.702Z,21.5
2023-05-10T12:41:01.598Z,21.3
2023-05-10T12:42:02.307Z,21.2
2023-05-10T12:43:01.960Z,21.9
2023-05-10T12:44:01.603Z,21.7
2023-05-10T12:45:01.448Z,22
2023-05-10T12:46:01.589Z,21.9
2023-05-10T12:47:01.347Z,22
2023-05-10T12:48:01.657Z,21.9
2023-05-10T12:49:08.820Z,21.4
2023-05-10T12:50:01.611Z,21.4
2023-05-10T12:51:01.573Z,21.6
2023-05-10T12:52:01.377Z,21.8
2023-05-10T12:53:01.418Z,21.7
2023-05-10T12:54:02.383Z,21.4
2023-05-10T12:55:02.239Z,21.3
2023-05-10T12:56:02.283Z,21.5
2023-05-10T12:57:02.119Z,21.5
2023-05-10T12:58:02.188Z,21.7
2023-05-10T12:59:02.037Z,21.9
2023-05-10T13:00:02.680Z,22.3
2023-05-10T13:01:01.354Z,22.3
2023-05-10T13:02:02.164Z,22.7
2023-05-10T13:03:02.167Z,23.3
2023-05-10T13:04:02.114Z,23.1
2023-05-10T13:05:02.136Z,22.7
2023-05-10T13:06:02.028Z,22.6
2023-05-10T13:07:02.096Z,22.5
2023-05-10T13:08:01.915Z,22.7
2023-05-10T13:09:01.828Z,22.2
2023-05-10T13:10:01.835Z,22.5
2023-05-10T13:11:01.688Z,22.5
2023-05-10T13:12:01.756Z,22.5
2023-05-10T13:13:01.612Z,22.3
2023-05-10T13:14:01.644Z,22.5
2023-05-10T13:15:01.540Z,22.9
2023-05-10T13:16:01.662Z,22.6
2023-05-10T13:17:01.649Z,22.8
2023-05-10T13:18:01.581Z,22.8
2023-05-10T13:19:01.703Z,22.9
2023-05-10T13:20:01.618Z,23.3
2023-05-10T13:21:01.671Z,23.6
2023-05-10T13:22:01.759Z,23.2
2023-05-10T13:23:01.453Z,22.7
2023-05-10T13:24:02.067Z,23.4
2023-05-10T13:25:02.053Z,23.5
2023-05-10T13:26:02.134Z,22.9
2023-05-10T13:27:01.988Z,22.3
2023-05-10T13:28:01.911Z,22.4
2023-05-10T13:29:02.018Z,22.5
2023-05-10T13:30:01.861Z,22.5
2023-05-10T13:31:01.830Z,22.1
2023-05-10T13:32:01.771Z,21.9
2023-05-10T13:33:01.804Z,21.7